Maricopa, Arizona
Current Conditions -  °F | °C
As of 11:15 AM on Friday 24 Oct 2014 (Local Time) from KCGZ Reporting Station
Clear Clear  
Wind Chill: 84°   Ceiling: Unl
Heat Index: 84°   Visibility: 10mi
Dew Point: 48°   Wind: 0mph
Humidity: 28%   Direction: NA
Pressure: 30.08"   Gusts: NA
Location:  33.06°N, 112.05°W
Report Text: KCGZ 241815Z AUTO 00000KT 10SM CLR 29/09 A3008 RMK AO1
Loading
Personal Weather Stations






























Interactive Weather Map
Tropical Storm Tracking
New forecast layout! Learn more

10-Day Weather Forecast

Advertisements
Track Severe Weather on mobile